• Join FlightAware (Why Join?)
  • Login
  • US Flag 
10:50AM EDT


 

Airport Tracker/Info


-or-


 

Live Flight TrackerFlight Track Log ✈ JBU527 ✈ 15-Apr-2013 ✈ KEWR - KMCO

Flight Track Log - Related Links

Times and Time Zones

All times are in EDT time to prevent confusion due to time zone crossing. See the JBU527 flight status page for this flight to view local times or setup timezone preferences in your user account.

Time Position Orientation Groundspeed Altitude Reporting Facility
EDT Latitude Longitude Course Direction KTS MPH feet Rate Location/Type
07:19PM 40.6667 -74.1833 180° South 150 173 1,500  Level New York TRACON
07:20PM 40.6167 -74.2167 207° Southwest 233 268 3,100 2,220 Climbing New York TRACON
07:21PM 40.5500 -74.2667 210° Southwest 256 295 6,000 1,440 Climbing New York TRACON
07:22PM 40.3634 -74.1781 161° South  Level FlightAware Approximate
07:22PM 40.4833 -74.2500 169° South 264 304 6,000  Level New York TRACON
07:23PM 40.2505 -74.1665 194° South  Level FlightAware Approximate
07:23PM 40.4167 -74.2167 159° South 270 311 6,000  Level New York TRACON
07:24PM 40.1356 -74.2000 180° South  Level FlightAware Approximate
07:24PM 40.3500 -74.1833 159° South 271 312 7,000  Level New York TRACON
07:26PM 40.2689 -74.1711 173° South 280 322 10,600 2,760 Climbing New York Center
07:26PM 40.1847 -74.1997 195° South 285 328 13,000 1,920 Climbing New York Center
07:27PM 40.1078 -74.2217 192° South 449 517 14,200 1,680 Climbing Washington Center
07:28PM 40.0081 -74.2533 194° South 416 479 16,200 1,800 Climbing Washington Center
07:29PM 39.9214 -74.3336 215° Southwest 383 441 17,900 1,920 Climbing Washington Center
07:30PM 39.8306 -74.4189 216° Southwest 421 484 20,100 1,860 Climbing Washington Center
07:31PM 39.7400 -74.5311 224° Southwest 427 491 21,700 1,680 Climbing Washington Center
07:32PM 39.6578 -74.6428 226° Southwest 427 491 23,500 1,740 Climbing Washington Center
07:33PM 39.5750 -74.7517 225° Southwest 427 491 25,200 1,560 Climbing Washington Center
07:34PM 39.4925 -74.8628 226° Southwest 427 491 26,700 1,320 Climbing Washington Center
07:35PM 39.4036 -74.9764 225° Southwest 432 497 27,900 1,200 Climbing Washington Center
07:36PM 39.2914 -75.0525 208° Southwest 444 511 29,100 1,260 Climbing Washington Center
07:37PM 39.1769 -75.1283 207° Southwest 457 526 30,500 1,260 Climbing Washington Center
07:38PM 39.0647 -75.2067 208° Southwest 457 526 31,700 1,500 Climbing Washington Center
07:39PM 38.9503 -75.2819 207° Southwest 462 532 33,500 1,500 Climbing Washington Center
07:40PM 38.8422 -75.3572 208° Southwest 457 526 34,800 1,020 Climbing Washington Center
07:41PM 38.7317 -75.4294 207° Southwest 452 520 35,600 600 Climbing Washington Center
07:42PM 38.6214 -75.5014 207° Southwest 452 520 36,000 180 Climbing Washington Center
07:43PM 38.5150 -75.5783 210° Southwest 452 520 36,000  Level Washington Center
07:44PM 38.4025 -75.6472 206° Southwest 452 520 36,000  Level Washington Center
07:45PM 38.2897 -75.7161 206° Southwest 452 520 36,000  Level Washington Center
07:46PM 38.1814 -75.7872 207° Southwest 452 520 36,000  Level Washington Center
07:47PM 38.0728 -75.8608 208° Southwest 452 520 36,000  Level Washington Center
07:48PM 37.9642 -75.9317 207° Southwest 452 520 36,000  Level Washington Center
07:49PM 37.8556 -76.0022 207° Southwest 452 520 36,000 -60 Level Washington Center
07:50PM 37.7592 -76.0697 209° Southwest 452 520 35,900 -60 Descending Washington Center
07:51PM 37.6525 -76.1400 208° Southwest 447 514 35,900  Level Washington Center
07:52PM 37.5314 -76.2125 205° Southwest 442 509 36,000  Climbing Washington Center
07:53PM 37.4203 -76.2822 206° Southwest 442 509 36,000  Level Washington Center
07:54PM 37.3114 -76.3517 207° Southwest 442 509 36,000  Level Washington Center
07:55PM 37.2025 -76.4211 207° Southwest 442 509 36,000  Level Washington Center
07:56PM 37.0936 -76.4903 207° Southwest 442 509 36,000  Level Washington Center
07:57PM 36.9844 -76.5592 207° Southwest 442 509 36,000  Level Washington Center
07:58PM 36.8756 -76.6278 207° Southwest 442 509 36,000  Level Washington Center
07:59PM 36.7686 -76.6964 207° Southwest 442 509 36,000 -60 Level Washington Center
08:00PM 36.6636 -76.7675 209° Southwest 436 502 35,900  Descending Washington Center
08:01PM 36.5544 -76.8306 205° Southwest 436 502 36,000  Climbing Washington Center
08:02PM 36.4453 -76.8986 207° Southwest 436 502 36,000  Level Washington Center
08:03PM 36.3381 -76.9664 207° Southwest 430 495 36,000  Level Washington Center
08:04PM 36.2308 -77.0339 207° Southwest 430 495 36,000 -60 Level Washington Center
08:05PM 36.1217 -77.0989 206° Southwest 430 495 35,900  Descending Washington Center
08:06PM 36.0164 -77.1661 207° Southwest 425 489 36,000  Climbing Washington Center
08:07PM 35.9172 -77.2464 213° Southwest 431 496 36,000  Level Washington Center
08:08PM 35.8219 -77.3392 218° Southwest 436 502 36,000  Level Washington Center
08:09PM 35.7308 -77.4292 219° Southwest 436 502 36,000  Level Washington Center
08:10PM 35.6356 -77.5217 218° Southwest 436 502 36,000  Level Washington Center
08:11PM 35.5403 -77.6111 217° Southwest 436 502 36,000  Level Washington Center
08:12PM 35.4469 -77.6956 216° Southwest 431 496 36,000  Level Washington Center
08:13PM 35.3514 -77.7872 218° Southwest 431 496 36,000  Level Washington Center
08:14PM 35.2578 -77.8786 219° Southwest 431 496 36,000  Level Washington Center
08:15PM 35.1644 -77.9675 218° Southwest 431 496 36,000  Level Washington Center
08:16PM 35.0686 -78.0536 216° Southwest 431 496 36,000  Level Washington Center
08:17PM 34.9750 -78.1419 218° Southwest 431 496 36,000  Level Washington Center
08:20PM 34.7619 -78.3414 218° Southwest 416 479 36,000  Level Jacksonville Center
08:21PM 34.6508 -78.4458 218° Southwest 427 491 36,000  Level Jacksonville Center
08:22PM 34.5581 -78.5311 217° Southwest 432 497 36,000  Level Jacksonville Center
08:23PM 34.4814 -78.6131 221° Southwest 426 490 36,000  Level Jacksonville Center
08:24PM 34.3864 -78.6983 217° Southwest 426 490 36,000  Level Jacksonville Center
08:25PM 34.2778 -78.7614 206° Southwest 432 497 36,000  Level Jacksonville Center
08:26PM 34.1669 -78.8169 203° Southwest 432 497 36,000  Level Jacksonville Center
08:27PM 34.0561 -78.8697 202° Southwest 437 503 36,000  Level Jacksonville Center
08:28PM 33.9411 -78.9275 203° Southwest 437 503 36,000  Level Jacksonville Center
08:29PM 33.8300 -78.9825 202° Southwest 437 503 36,000  Level Jacksonville Center
08:30PM 33.7189 -79.0350 201° Southwest 437 503 36,000  Level Jacksonville Center
08:31PM 33.6058 -79.0897 202° Southwest 437 503 36,000  Level Jacksonville Center
08:32PM 33.4989 -79.1417 202° Southwest 432 497 36,000  Level Jacksonville Center
08:33PM 33.3900 -79.1983 203° Southwest 432 497 36,000  Level Jacksonville Center
08:34PM 33.2769 -79.2528 202° Southwest 432 497 36,000  Level Jacksonville Center
08:35PM 33.1656 -79.3044 201° Southwest 432 497 36,000  Level Jacksonville Center
08:36PM 33.0525 -79.3611 203° Southwest 432 497 36,000  Level Jacksonville Center
08:37PM 32.9411 -79.4150 202° Southwest 437 503 36,000  Level Jacksonville Center
08:38PM 32.8300 -79.4686 202° Southwest 432 497 36,000  Level Jacksonville Center
08:39PM 32.7186 -79.5222 202° Southwest 432 497 36,000  Level Jacksonville Center
08:40PM 32.6094 -79.5756 202° Southwest 432 497 36,000  Level Jacksonville Center
08:41PM 32.4961 -79.6317 203° Southwest 432 497 36,000 -60 Level Jacksonville Center
08:42PM 32.3828 -79.6847 202° Southwest 432 497 35,900  Descending Jacksonville Center
08:43PM 32.2733 -79.7378 202° Southwest 432 497 36,000  Climbing Jacksonville Center
08:44PM 32.1600 -79.7931 202° Southwest 437 503 36,000  Level Jacksonville Center
08:45PM 32.0444 -79.8461 201° Southwest 437 503 36,000  Level Jacksonville Center
08:46PM 31.9328 -79.9011 203° Southwest 437 503 36,000  Level Jacksonville Center
08:47PM 31.8172 -79.9564 202° Southwest 443 510 36,000  Level Jacksonville Center
08:48PM 31.7036 -80.0086 201° Southwest 443 510 36,000  Level Jacksonville Center
08:49PM 31.5900 -80.0633 202° Southwest 448 516 36,000  Level Jacksonville Center
08:50PM 31.4764 -80.1181 202° Southwest 448 516 36,000 -60 Level Jacksonville Center
08:51PM 31.3650 -80.1725 203° Southwest 448 516 35,900  Descending Jacksonville Center
08:52PM 31.2344 -80.2272 200° South 442 509 36,000  Climbing Jacksonville Center
08:53PM 31.1292 -80.2836 205° Southwest 442 509 35,900 -60 Descending Jacksonville Center
08:54PM 31.0069 -80.3306 198° South 451 519 35,900 -480 Level Jacksonville Center
08:55PM 30.8994 -80.3867 204° Southwest 451 519 35,000 -1,020 Descending Jacksonville Center
08:56PM 30.7817 -80.4408 202° Southwest 446 513 33,900 -540 Descending Jacksonville Center
08:57PM 30.6678 -80.4894 200° South 446 513 34,000  Climbing Jacksonville Center
08:58PM 30.5539 -80.5456 203° Southwest 446 513 34,000  Level Jacksonville Center
08:59PM 30.4358 -80.5989 201° Southwest 453 521 34,000 -240 Level Jacksonville Center
09:00PM 30.3219 -80.6522 202° Southwest 453 521 33,600 -660 Descending Jacksonville Center
09:01PM 30.2058 -80.7031 201° Southwest 447 514 32,700 -1,020 Descending Jacksonville Center
09:02PM 30.0833 -80.7417 195° South 447 514 31,600 -1,500 Descending Jacksonville Center
09:03PM 29.9631 -80.7828 196° South 452 520 29,700 -2,100 Descending Jacksonville Center
09:04PM 29.8383 -80.8239 196° South 457 526 27,400 -2,280 Descending Jacksonville Center
09:05PM 29.7222 -80.8622 196° South 452 520 25,200 -2,220 Descending Jacksonville Center
09:06PM 29.6081 -80.9003 196° South 447 514 23,000 -2,160 Descending Jacksonville Center
09:07PM 29.4917 -80.9386 196° South 435 501 20,900 -2,040 Descending Jacksonville Center
09:08PM 29.3836 -80.9717 195° South 429 494 19,000 -1,920 Descending Jacksonville Center
09:09PM 29.2778 -81.0047 195° South 411 473 17,100 -1,980 Descending Jacksonville Center
09:10PM 29.1778 -81.0350 195° South 395 455 15,100 -1,920 Descending Jacksonville Center
09:11PM 29.0803 -81.0703 198° South 378 435 13,300 -1,620 Descending Jacksonville Center
09:12PM 28.9844 -81.0908 191° South 367 422 11,900 -1,440 Descending Jacksonville Center
09:13PM 28.8908 -81.0997 185° South 354 407 10,500 -1,320 Descending Jacksonville Center
09:14PM 28.8167 -81.1167 191° South 292 336 9,400 -780 Descending Orlando TRACON
09:15PM 28.7167 -81.1333 188° South 295 339 9,000 -240 Descending Orlando TRACON
09:16PM 28.6500 -81.1333 180° South 291 335 9,000  Level Orlando TRACON
09:17PM 28.5500 -81.1500 188° South 296 341 9,000 -480 Level Orlando TRACON
09:18PM 28.4833 -81.1667 192° South 293 337 8,100 -1,080 Descending Orlando TRACON
09:19PM 28.4000 -81.1833 190° South 237 273 6,900 -1,440 Descending Orlando TRACON
09:20PM 28.3500 -81.1833 180° South 241 277 5,400 -1,740 Descending Orlando TRACON
09:21PM 28.2833 -81.1833 180° South 233 268 3,700 -1,260 Descending Orlando TRACON
09:22PM 28.2167 -81.2000 192° South 200 230 2,800 -960 Descending Orlando TRACON
09:23PM 28.2500 -81.2500 307° West 206 237 1,600 -660 Descending Orlando TRACON
09:24PM 28.2833 -81.2833 319° Northwest 200 230 1,600 -60 Level Orlando TRACON
09:25PM 28.3333 -81.3167 330° Northwest 204 235 1,500 -360 Descending Orlando TRACON
09:26PM 28.3667 -81.3167 360° North 143 165 900 -720 Descending Orlando TRACON
09:27PM 28.4167 -81.3167 360° North 142 163 200 -780 Descending Orlando TRACON
09:29PM 28.4167 -81.3000 336° Northwest  Level FlightAware Approximate
09:36PM 28.4294 -81.3090 336° Northwest  Level Estimated
09:37PM 28.4294 -81.3090 336° Northwest  Level Estimated
09:38PM 28.4294 -81.3090 336° Northwest  Level Estimated